Time;durP1;ratioP1;P1;durP2;ratioP2;P2;SDS_P1;SDS_P2;PMS_P1;PMS_P2;Temp;Humidity;BMP_temperature;BMP_pressure;BME280_temperature;BME280_humidity;BME280_pressure;Samples;Min_cycle;Max_cycle;Signal;HPM_P1;HPM_P2
2023/12/16 00:00:15;;;;;;;6.45;2.92;;;;;;;18.93;42.35;103794.38;5065720;28;20048;-72
2023/12/16 00:02:41;;;;;;;8.13;3.25;;;;;;;19.01;42.31;103822.25;5065136;28;20178;-72
2023/12/16 00:05:08;;;;;;;9.05;2.85;;;;;;;18.90;42.23;103808.59;5065897;28;20123;-72
2023/12/16 00:07:33;;;;;;;6.50;3.15;;;;;;;18.98;42.38;103822.38;5065935;28;20031;-73
2023/12/16 00:09:58;;;;;;;6.13;2.88;;;;;;;18.97;42.21;103817.16;5065558;28;20041;-71
2023/12/16 00:12:24;;;;;;;6.20;2.67;;;;;;;18.94;42.32;103820.75;5065887;28;20494;-71
2023/12/16 00:14:49;;;;;;;7.60;2.80;;;;;;;18.90;42.05;103816.53;5064369;28;20032;-71
2023/12/16 00:17:14;;;;;;;7.70;3.10;;;;;;;18.85;42.07;103806.13;5065597;28;20044;-73
2023/12/16 00:19:40;;;;;;;9.40;3.13;;;;;;;18.88;42.11;103812.19;5065525;28;20435;-71
2023/12/16 00:22:05;;;;;;;7.15;2.90;;;;;;;18.90;41.83;103823.56;5065880;28;20028;-71
2023/12/16 00:24:30;;;;;;;6.70;2.53;;;;;;;18.92;41.96;103827.88;5065728;28;20037;-72
2023/12/16 00:26:55;;;;;;;6.70;3.13;;;;;;;18.82;41.87;103805.34;5068951;28;20393;-71
2023/12/16 00:29:21;;;;;;;7.57;3.22;;;;;;;18.87;41.91;103816.63;5069486;28;20269;-73
2023/12/16 00:31:46;;;;;;;7.35;2.90;;;;;;;18.78;41.88;103796.66;5069315;28;20055;-73
2023/12/16 00:34:11;;;;;;;5.90;2.42;;;;;;;18.88;41.63;103815.69;5069164;28;20062;-71
2023/12/16 00:36:36;;;;;;;8.40;2.90;;;;;;;18.77;41.75;103794.94;5068580;28;20160;-71
2023/12/16 00:39:02;;;;;;;9.80;2.95;;;;;;;18.79;41.75;103798.38;5069051;28;20050;-71
2023/12/16 00:41:29;;;;;;;7.13;2.92;;;;;;;18.76;41.83;103797.66;5069311;28;20511;-72
2023/12/16 00:43:54;;;;;;;6.70;2.60;;;;;;;18.76;41.51;103795.00;5068637;28;20047;-70
2023/12/16 00:46:20;;;;;;;8.32;2.85;;;;;;;18.82;41.68;103797.44;5068420;28;20049;-73
2023/12/16 00:48:45;;;;;;;6.50;2.70;;;;;;;18.74;41.36;103784.50;5051092;28;20032;-72
2023/12/16 00:51:10;;;;;;;6.80;2.80;;;;;;;18.80;41.62;103792.19;5069011;28;20025;-74
2023/12/16 00:53:35;;;;;;;7.32;2.95;;;;;;;18.80;41.41;103797.47;5068724;28;20101;-72
2023/12/16 00:56:01;;;;;;;6.22;2.67;;;;;;;18.76;41.59;103798.50;5068670;28;20086;-73
2023/12/16 00:58:26;;;;;;;7.10;2.63;;;;;;;18.79;41.21;103808.97;5069244;28;20040;-72
2023/12/16 01:00:51;;;;;;;6.93;2.80;;;;;;;18.70;41.42;103793.44;5068906;28;20601;-72
2023/12/16 01:03:17;;;;;;;6.00;2.90;;;;;;;18.75;41.56;103788.84;5067639;28;20090;-72
2023/12/16 01:05:42;;;;;;;7.97;2.55;;;;;;;18.77;41.35;103796.72;5068588;28;20082;-72
2023/12/16 01:08:07;;;;;;;8.15;2.67;;;;;;;18.67;41.29;103786.50;5068707;28;20024;-74
2023/12/16 01:10:33;;;;;;;7.65;2.70;;;;;;;18.75;41.36;103804.69;5068519;28;20082;-73
2023/12/16 01:12:58;;;;;;;7.38;2.30;;;;;;;18.63;41.22;103790.19;5067470;28;20032;-72
2023/12/16 01:15:23;;;;;;;6.25;2.42;;;;;;;18.73;41.20;103810.97;5068432;28;20107;-72
2023/12/16 01:17:48;;;;;;;7.00;2.50;;;;;;;18.73;41.55;103814.47;5049606;28;20025;-74
2023/12/16 01:20:14;;;;;;;5.72;2.33;;;;;;;18.65;41.27;103801.53;5067870;28;20464;-71
2023/12/16 01:22:39;;;;;;;7.25;2.75;;;;;;;18.71;41.13;103803.09;5048938;28;20480;-74
2023/12/16 01:25:05;;;;;;;5.65;2.25;;;;;;;18.72;41.05;103810.09;5067894;28;20044;-71
2023/12/16 01:27:31;;;;;;;6.30;2.50;;;;;;;18.60;41.23;103792.94;5068350;28;20028;-73
2023/12/16 01:29:56;;;;;;;7.50;2.50;;;;;;;18.58;41.28;103789.50;5068067;28;20035;-72
2023/12/16 01:32:22;;;;;;;7.82;2.70;;;;;;;18.58;41.27;103793.88;5068535;28;20455;-72
2023/12/16 01:34:47;;;;;;;7.72;2.53;;;;;;;18.63;41.24;103800.75;5067938;28;20024;-72
2023/12/16 01:37:12;;;;;;;5.80;2.70;;;;;;;18.57;41.42;103785.13;5067102;28;20028;-72
2023/12/16 01:39:37;;;;;;;6.37;2.40;;;;;;;18.64;40.97;103798.94;5067546;28;20085;-72
2023/12/16 01:42:03;;;;;;;6.97;2.70;;;;;;;18.62;41.09;103784.94;5067723;28;20629;-73
2023/12/16 01:44:29;;;;;;;7.10;2.70;;;;;;;18.64;41.12;103791.03;5064796;28;20033;-72
2023/12/16 01:46:54;;;;;;;7.15;2.90;;;;;;;18.55;41.15;103776.41;5066727;28;21343;-72
2023/12/16 01:49:20;;;;;;;6.55;2.58;;;;;;;18.63;41.08;103789.31;5066543;28;20477;-72
2023/12/16 01:51:46;;;;;;;6.28;2.05;;;;;;;18.61;40.98;103791.13;5066663;28;20480;-71
2023/12/16 01:54:12;;;;;;;6.70;2.30;;;;;;;18.59;40.94;103791.19;5067182;28;20032;-71
2023/12/16 01:56:37;;;;;;;7.63;2.85;;;;;;;18.52;41.01;103771.22;5066922;28;20048;-71
2023/12/16 01:59:03;;;;;;;7.28;2.10;;;;;;;18.60;40.92;103794.72;5067902;28;20489;-71
2023/12/16 02:01:29;;;;;;;7.18;2.53;;;;;;;18.53;41.22;103785.28;5067821;28;20121;-71
2023/12/16 02:03:56;;;;;;;6.97;2.30;;;;;;;18.49;41.08;103776.63;5066958;28;20064;-71
2023/12/16 02:06:21;;;;;;;6.72;2.72;;;;;;;18.57;40.97;103794.84;5067336;28;20435;-71
2023/12/16 02:08:47;;;;;;;5.68;2.33;;;;;;;18.56;40.99;103791.31;5067199;28;20036;-71
2023/12/16 02:11:12;;;;;;;7.53;2.90;;;;;;;18.57;41.32;103795.69;5066189;28;20086;-71
2023/12/16 02:13:37;;;;;;;5.88;2.40;;;;;;;18.56;40.85;103787.81;5067352;28;20387;-72
2023/12/16 02:16:03;;;;;;;5.78;2.33;;;;;;;18.55;40.96;103789.59;5067156;28;20028;-72
2023/12/16 02:18:29;;;;;;;6.82;2.25;;;;;;;18.47;40.84;103774.03;5067408;28;20068;-71
2023/12/16 02:20:54;;;;;;;6.03;2.50;;;;;;;18.54;41.00;103790.50;5066309;28;20036;-72
2023/12/16 02:23:19;;;;;;;7.47;2.70;;;;;;;18.46;40.97;103787.28;5066810;28;20039;-71
2023/12/16 02:25:45;;;;;;;6.75;2.47;;;;;;;18.43;40.85;103777.69;5067319;28;20380;-72
2023/12/16 02:28:10;;;;;;;6.07;2.67;;;;;;;18.44;40.69;103779.41;5067063;28;20131;-72
2023/12/16 02:30:36;;;;;;;6.38;2.40;;;;;;;18.42;40.84;103776.00;5067306;28;20035;-71
2023/12/16 02:33:02;;;;;;;7.63;2.53;;;;;;;18.52;40.71;103791.47;5066295;28;20412;-72
2023/12/16 02:35:27;;;;;;;6.25;2.53;;;;;;;18.50;40.89;103783.63;5067304;28;20060;-72
2023/12/16 02:37:52;;;;;;;6.97;2.30;;;;;;;18.38;40.57;103769.09;5048850;28;20081;-71
2023/12/16 02:40:18;;;;;;;5.80;2.50;;;;;;;18.43;40.84;103780.34;5066907;28;20115;-71
2023/12/16 02:42:43;;;;;;;6.60;2.60;;;;;;;18.38;40.87;103776.16;5065990;28;20560;-71
2023/12/16 02:45:09;;;;;;;6.13;2.63;;;;;;;18.44;40.53;103794.41;5066528;28;20449;-72
2023/12/16 02:47:34;;;;;;;5.50;2.10;;;;;;;18.43;40.65;103798.81;5066043;28;20501;-72
2023/12/16 02:50:00;;;;;;;5.28;2.00;;;;;;;18.42;40.74;103802.41;5066074;28;20046;-72
2023/12/16 02:52:25;;;;;;;6.35;2.40;;;;;;;18.33;40.50;103792.16;5047902;28;20032;-72
2023/12/16 02:54:51;;;;;;;6.50;2.35;;;;;;;18.36;40.94;103794.69;5066183;28;20040;-72
2023/12/16 02:57:16;;;;;;;5.75;2.20;;;;;;;18.37;40.84;103792.91;5066116;28;20067;-72
2023/12/16 02:59:41;;;;;;;7.93;2.43;;;;;;;18.33;40.54;103786.03;5066827;28;20135;-72
2023/12/16 03:02:06;;;;;;;6.60;2.45;;;;;;;18.41;40.69;103797.16;5065789;28;20304;-72
2023/12/16 03:04:32;;;;;;;6.60;2.42;;;;;;;18.41;40.33;103794.53;5066543;28;20135;-72
2023/12/16 03:06:57;;;;;;;5.17;2.20;;;;;;;18.37;40.55;103788.47;5066475;28;20109;-72
2023/12/16 03:09:22;;;;;;;7.57;2.38;;;;;;;18.27;40.78;103774.75;5065964;28;20287;-72
2023/12/16 03:11:49;;;;;;;8.25;2.60;;;;;;;18.40;40.67;103788.34;5066348;28;20105;-71
2023/12/16 03:14:16;;;;;;;6.20;2.50;;;;;;;18.40;40.92;103785.72;5066430;28;20476;-72
2023/12/16 03:16:41;;;;;;;5.88;2.20;;;;;;;18.38;40.58;103784.06;5066440;28;20464;-71
2023/12/16 03:19:06;;;;;;;5.05;2.20;;;;;;;18.36;40.42;103784.13;5066306;28;20074;-71
2023/12/16 03:21:31;;;;;;;6.73;2.27;;;;;;;18.39;40.70;103784.03;5066410;28;20365;-72
2023/12/16 03:23:57;;;;;;;7.28;2.17;;;;;;;18.37;40.74;103784.97;5066171;28;20281;-72
2023/12/16 03:26:22;;;;;;;6.97;2.28;;;;;;;18.40;40.74;103780.44;5065941;28;20074;-72
2023/12/16 03:28:47;;;;;;;5.78;2.30;;;;;;;18.36;40.51;103785.88;5065896;28;20035;-72
2023/12/16 03:31:13;;;;;;;5.15;2.28;;;;;;;18.36;40.54;103783.25;5065893;28;20040;-72
2023/12/16 03:33:38;;;;;;;5.10;2.17;;;;;;;18.37;40.62;103785.81;5065345;28;20032;-72
2023/12/16 03:36:06;;;;;;;4.90;2.22;;;;;;;18.30;40.72;103773.78;5063842;28;20028;-72
2023/12/16 03:38:32;;;;;;;5.35;2.20;;;;;;;18.30;40.53;103772.00;5065697;28;20024;-72
2023/12/16 03:40:57;;;;;;;4.53;1.97;;;;;;;18.29;40.71;103778.22;5065638;28;20429;-72
2023/12/16 03:43:22;;;;;;;6.13;2.20;;;;;;;18.37;40.53;103796.38;5065166;28;20283;-71
2023/12/16 03:45:48;;;;;;;5.82;2.30;;;;;;;18.27;40.36;103781.81;5065233;28;20060;-72
2023/12/16 03:48:13;;;;;;;5.68;2.28;;;;;;;18.35;40.57;103795.59;5065336;28;20040;-72
2023/12/16 03:50:38;;;;;;;5.68;1.90;;;;;;;18.36;40.37;103791.16;5065548;28;20025;-73
2023/12/16 03:53:04;;;;;;;9.85;2.55;;;;;;;18.31;40.53;103783.44;5065390;28;20040;-72
2023/12/16 03:55:29;;;;;;;7.32;2.20;;;;;;;18.34;40.49;103796.53;5065522;28;20032;-73
2023/12/16 03:57:54;;;;;;;6.47;2.20;;;;;;;18.24;40.56;103785.41;5065747;28;20036;-70
2023/12/16 04:00:19;;;;;;;4.87;2.27;;;;;;;18.25;40.38;103784.50;5067773;28;20265;-73
2023/12/16 04:02:45;;;;;;;7.53;2.17;;;;;;;18.31;40.57;103789.56;5068628;28;20280;-73
2023/12/16 04:05:10;;;;;;;6.73;2.47;;;;;;;18.25;40.27;103788.94;5069206;28;20036;-72
2023/12/16 04:07:36;;;;;;;7.63;2.45;;;;;;;18.31;40.38;103797.50;5070086;28;20730;-70
2023/12/16 04:10:02;;;;;;;5.90;2.03;;;;;;;18.30;40.24;103793.13;5069567;28;20054;-71
2023/12/16 04:12:28;;;;;;;5.25;2.17;;;;;;;18.27;40.66;103797.66;5069434;28;20028;-70
2023/12/16 04:14:53;;;;;;;6.80;2.35;;;;;;;18.27;40.52;103805.56;5069936;28;20059;-70
2023/12/16 04:17:18;;;;;;;5.78;2.30;;;;;;;18.26;40.43;103799.44;5069260;28;20047;-72
2023/12/16 04:19:50;;;;;;;6.18;2.17;;;;;;;18.23;40.23;103796.91;5069234;28;20042;-73
2023/12/16 04:22:15;;;;;;;5.80;2.45;;;;;;;18.24;40.44;103792.47;5069421;28;20028;-72
2023/12/16 04:24:40;;;;;;;6.05;2.38;;;;;;;18.23;40.42;103785.47;5069426;28;20031;-73
2023/12/16 04:27:06;;;;;;;5.78;2.53;;;;;;;18.25;40.45;103788.94;5069398;28;20024;-72
2023/12/16 04:29:31;;;;;;;6.05;2.40;;;;;;;18.16;40.37;103781.31;5069600;28;20025;-73
2023/12/16 04:31:56;;;;;;;5.63;1.90;;;;;;;18.25;40.15;103791.56;5068667;28;20024;-72
2023/12/16 04:34:21;;;;;;;6.63;2.13;;;;;;;18.18;40.25;103777.69;5069368;28;20409;-73
2023/12/16 04:36:47;;;;;;;7.37;2.47;;;;;;;18.16;40.16;103773.41;5069260;28;20033;-72
2023/12/16 04:39:12;;;;;;;6.03;2.50;;;;;;;18.16;40.25;103776.06;5069069;28;20261;-71
2023/12/16 04:41:38;;;;;;;6.82;2.53;;;;;;;18.15;40.42;103772.56;5069457;28;20035;-72
2023/12/16 04:44:04;;;;;;;6.50;2.42;;;;;;;18.23;40.21;103785.47;5069051;28;20396;-72
2023/12/16 04:46:29;;;;;;;6.85;2.50;;;;;;;18.13;40.26;103764.69;5068867;28;20158;-72
2023/12/16 04:48:54;;;;;;;6.85;2.42;;;;;;;18.13;40.25;103762.06;5068920;28;20036;-71
2023/12/16 04:51:20;;;;;;;5.97;2.53;;;;;;;18.13;40.26;103767.34;5069202;28;20036;-71
2023/12/16 04:53:45;;;;;;;5.57;2.75;;;;;;;18.15;40.39;103763.75;5068695;28;20953;-72
2023/12/16 04:56:10;;;;;;;6.15;2.20;;;;;;;18.20;40.25;103769.72;5068838;28;20358;-71
2023/12/16 04:58:36;;;;;;;7.43;2.40;;;;;;;18.20;40.25;103777.66;5068917;28;20480;-72
2023/12/16 05:01:01;;;;;;;5.85;2.28;;;;;;;18.18;40.25;103771.56;5068715;28;20444;-72
2023/12/16 05:03:26;;;;;;;7.18;2.40;;;;;;;18.18;40.03;103777.69;5066588;28;20423;-72
2023/12/16 05:05:52;;;;;;;7.25;2.38;;;;;;;18.04;40.26;103748.28;5067965;28;21543;-72
2023/12/16 05:08:19;;;;;;;8.43;2.42;;;;;;;18.19;40.18;103781.22;5067982;28;20037;-72
2023/12/16 05:10:47;;;;;;;5.93;2.50;;;;;;;18.21;40.24;103785.50;5067793;28;20552;-72
2023/12/16 05:13:13;;;;;;;4.53;1.85;;;;;;;18.09;40.33;103770.97;5067323;28;20085;-72
2023/12/16 05:15:38;;;;;;;6.88;2.40;;;;;;;18.09;40.29;103772.78;5067673;28;20689;-72
2023/12/16 05:18:06;;;;;;;7.15;2.70;;;;;;;18.12;39.93;103765.59;5068403;28;20028;-72
2023/12/16 05:20:31;;;;;;;5.03;1.92;;;;;;;18.10;39.97;103769.19;5067697;28;20029;-72
2023/12/16 05:22:56;;;;;;;7.20;2.60;;;;;;;18.06;40.24;103775.50;5067338;28;20460;-72
2023/12/16 05:25:22;;;;;;;5.22;2.30;;;;;;;18.05;40.06;103769.34;5049989;28;20044;-72
2023/12/16 05:27:47;;;;;;;8.02;2.70;;;;;;;18.05;40.12;103772.00;5068178;28;20091;-72
2023/12/16 05:30:12;;;;;;;6.60;2.28;;;;;;;18.10;40.08;103790.31;5067954;28;20081;-72
2023/12/16 05:32:38;;;;;;;5.40;2.50;;;;;;;18.11;39.96;103797.31;5066519;28;20031;-72
2023/12/16 05:35:04;;;;;;;6.53;2.15;;;;;;;18.05;39.92;103787.81;5067933;28;20028;-72
2023/12/16 05:37:29;;;;;;;6.40;2.20;;;;;;;18.08;40.02;103792.16;5067901;28;20033;-72
2023/12/16 05:39:54;;;;;;;5.15;2.20;;;;;;;18.05;40.16;103785.19;5068282;28;20107;-72
2023/12/16 05:42:19;;;;;;;5.13;1.95;;;;;;;18.10;40.05;103796.47;5067963;28;20033;-72
2023/12/16 05:44:45;;;;;;;7.50;2.40;;;;;;;18.13;40.07;103801.66;5067729;28;20404;-72
2023/12/16 05:47:10;;;;;;;7.18;2.30;;;;;;;18.08;39.95;103795.63;5067699;28;20368;-72
2023/12/16 05:49:36;;;;;;;5.57;1.90;;;;;;;18.13;40.07;103812.22;5067604;28;20039;-72
2023/12/16 05:52:01;;;;;;;7.95;2.40;;;;;;;18.10;39.99;103804.38;5067452;28;20036;-71
2023/12/16 05:54:27;;;;;;;8.35;2.55;;;;;;;18.05;39.92;103789.63;5067639;28;20082;-72
2023/12/16 05:56:53;;;;;;;7.10;2.20;;;;;;;18.10;39.96;103790.31;5068030;28;20032;-72
2023/12/16 05:59:18;;;;;;;5.90;2.30;;;;;;;18.06;39.90;103789.56;5067584;28;20119;-72
2023/12/16 06:01:44;;;;;;;6.72;2.38;;;;;;;18.03;39.97;103775.63;5066876;28;20166;-72
2023/12/16 06:04:09;;;;;;;7.97;2.33;;;;;;;18.09;39.96;103785.97;5066905;28;20123;-72
2023/12/16 06:06:34;;;;;;;6.82;2.40;;;;;;;18.02;39.98;103765.97;5067501;28;20606;-72
2023/12/16 06:09:00;;;;;;;5.97;2.10;;;;;;;18.11;40.27;103773.56;5065994;28;20107;-73
2023/12/16 06:11:25;;;;;;;5.85;2.13;;;;;;;18.15;40.53;103783.13;5066884;28;20039;-72
2023/12/16 06:13:50;;;;;;;5.82;2.08;;;;;;;18.18;40.45;103792.69;5067217;28;20384;-71
2023/12/16 06:16:16;;;;;;;5.63;1.98;;;;;;;18.19;40.85;103794.44;5066862;28;20129;-72
2023/12/16 06:18:49;;;;;;;5.20;1.92;;;;;;;18.23;40.91;103799.53;5066607;28;20396;-71
2023/12/16 06:21:14;;;;;;;5.13;2.03;;;;;;;18.24;41.13;103801.25;5065617;28;20408;-72
2023/12/16 06:23:40;;;;;;;4.20;1.65;;;;;;;18.18;41.21;103771.56;5066486;28;20044;-72
2023/12/16 06:26:05;;;;;;;4.22;1.83;;;;;;;18.32;41.04;103790.41;5066733;28;20119;-71
2023/12/16 06:28:30;;;;;;;4.93;1.83;;;;;;;18.34;41.10;103798.28;5066407;28;20028;-71
2023/12/16 06:30:56;;;;;;;5.77;1.90;;;;;;;18.36;41.02;103788.53;5066951;28;20035;-72
2023/12/16 06:33:24;;;;;;;6.30;2.33;;;;;;;18.39;41.11;103789.31;5065337;28;20281;-71
2023/12/16 06:35:50;;;;;;;4.05;1.90;;;;;;;18.34;41.13;103771.88;5066789;28;20032;-71
2023/12/16 06:38:16;;;;;;;3.95;1.70;;;;;;;18.42;41.06;103780.38;5065511;28;20041;-72
2023/12/16 06:40:41;;;;;;;4.97;1.98;;;;;;;18.38;41.24;103776.16;5066331;28;20039;-71
2023/12/16 06:43:06;;;;;;;4.55;1.85;;;;;;;18.40;41.00;103772.50;5065879;28;20068;-71
2023/12/16 06:45:33;;;;;;;4.82;1.80;;;;;;;18.49;41.08;103784.53;5065915;28;20614;-71
2023/12/16 06:47:59;;;;;;;4.60;1.80;;;;;;;18.44;40.75;103770.66;5065525;28;20098;-71
2023/12/16 06:50:24;;;;;;;6.22;1.98;;;;;;;18.46;41.24;103777.59;5065934;28;20028;-70
2023/12/16 06:52:49;;;;;;;5.43;1.70;;;;;;;18.56;40.87;103787.81;5065977;28;20032;-71
2023/12/16 06:55:15;;;;;;;4.97;1.83;;;;;;;18.51;41.09;103780.06;5065721;28;20028;-71
2023/12/16 06:57:40;;;;;;;6.00;1.77;;;;;;;18.59;41.00;103795.63;5065772;28;20020;-71
2023/12/16 07:00:06;;;;;;;3.78;1.70;;;;;;;18.51;40.85;103779.22;5066604;28;20033;-71
2023/12/16 07:02:32;;;;;;;4.53;1.42;;;;;;;18.49;40.83;103780.09;5065477;28;20067;-71
2023/12/16 07:04:57;;;;;;;6.25;1.90;;;;;;;18.61;41.05;103799.94;5066039;28;20064;-71
2023/12/16 07:07:23;;;;;;;4.88;1.63;;;;;;;18.58;40.80;103789.50;5066428;28;20043;-72
2023/12/16 07:09:48;;;;;;;5.00;1.70;;;;;;;18.54;41.03;103787.88;5066874;28;20055;-71
2023/12/16 07:12:14;;;;;;;5.10;1.80;;;;;;;18.54;40.83;103785.22;5066628;28;20461;-72
2023/12/16 07:14:39;;;;;;;4.83;1.87;;;;;;;18.64;40.81;103807.75;5065788;28;20268;-71
2023/12/16 07:17:04;;;;;;;5.65;2.30;;;;;;;18.57;40.86;103793.03;5065293;28;20314;-71
2023/12/16 07:19:31;;;;;;;5.07;1.63;;;;;;;18.64;40.75;103812.16;5065848;28;20032;-72
2023/12/16 07:21:57;;;;;;;5.63;2.05;;;;;;;18.55;40.82;103794.88;5065169;28;20101;-72
2023/12/16 07:24:22;;;;;;;5.55;1.70;;;;;;;18.63;40.73;103810.47;5065353;28;20461;-72
2023/12/16 07:26:47;;;;;;;7.27;1.90;;;;;;;18.56;40.85;103795.72;5065684;28;20376;-73
2023/12/16 07:29:12;;;;;;;5.05;1.80;;;;;;;18.57;40.45;103795.69;5065898;28;20269;-73
2023/12/16 07:31:38;;;;;;;5.85;1.73;;;;;;;18.67;40.72;103820.84;5066140;28;20456;-72
2023/12/16 07:34:03;;;;;;;6.00;1.65;;;;;;;18.66;40.58;103831.47;5066285;28;20033;-73
2023/12/16 07:36:29;;;;;;;5.18;1.77;;;;;;;18.59;40.46;103816.75;5070362;28;20457;-73
2023/12/16 07:38:55;;;;;;;5.78;2.08;;;;;;;18.64;40.55;103828.00;5070414;28;20025;-72
2023/12/16 07:41:21;;;;;;;5.47;2.00;;;;;;;18.64;40.34;103834.19;5069918;28;20032;-72
2023/12/16 07:43:46;;;;;;;5.10;1.77;;;;;;;18.64;40.31;103826.25;5070086;28;20550;-73
2023/12/16 07:46:12;;;;;;;6.57;2.10;;;;;;;18.62;40.33;103821.94;5070196;28;20052;-70
2023/12/16 07:48:37;;;;;;;5.03;1.67;;;;;;;18.53;40.36;103811.69;5069950;28;20051;-70
2023/12/16 07:51:03;;;;;;;5.55;1.85;;;;;;;18.63;40.40;103827.16;5069580;28;20043;-71
2023/12/16 07:53:28;;;;;;;6.00;2.05;;;;;;;18.62;40.32;103824.56;5069487;28;20586;-71
2023/12/16 07:55:53;;;;;;;7.15;2.17;;;;;;;18.62;40.51;103824.56;5070279;28;20059;-72
2023/12/16 07:58:18;;;;;;;4.63;1.75;;;;;;;18.55;40.78;103812.50;5069551;28;20389;-72
2023/12/16 08:00:44;;;;;;;5.57;2.27;;;;;;;18.55;40.81;103815.13;5070203;28;20086;-71
2023/12/16 08:03:09;;;;;;;5.63;1.90;;;;;;;18.54;40.71;103806.34;5068778;28;20292;-71
2023/12/16 08:05:34;;;;;;;4.97;1.67;;;;;;;18.61;40.88;103831.63;5069908;28;20064;-71
2023/12/16 08:08:00;;;;;;;6.57;2.20;;;;;;;18.64;40.98;103828.91;5068819;28;20066;-72
2023/12/16 08:10:25;;;;;;;5.63;1.83;;;;;;;18.57;40.95;103824.72;5069396;28;20268;-72
2023/12/16 08:12:50;;;;;;;5.33;2.10;;;;;;;18.58;40.84;103830.88;5068391;28;20028;-72
2023/12/16 08:15:16;;;;;;;5.43;1.70;;;;;;;18.63;41.00;103847.44;5069078;28;20265;-71
2023/12/16 08:17:41;;;;;;;5.97;2.13;;;;;;;18.68;41.06;103851.63;5068549;28;20135;-73
2023/12/16 08:20:08;;;;;;;5.40;1.83;;;;;;;18.65;40.82;103849.09;5068531;28;20105;-72
2023/12/16 08:22:34;;;;;;;6.22;2.10;;;;;;;18.59;40.92;103843.16;5068640;28;20024;-72
2023/12/16 08:24:59;;;;;;;5.72;2.30;;;;;;;18.68;41.14;103862.19;5068775;28;20044;-73
2023/12/16 08:27:24;;;;;;;9.88;2.28;;;;;;;18.60;40.91;103848.41;5050057;28;20033;-72
2023/12/16 08:29:50;;;;;;;6.10;1.58;;;;;;;18.66;41.08;103858.75;5068878;28;20063;-71
2023/12/16 08:32:16;;;;;;;5.05;2.10;;;;;;;18.68;41.30;103863.97;5069052;28;20404;-75
2023/12/16 08:34:41;;;;;;;5.35;1.98;;;;;;;18.59;41.19;103843.16;5069423;28;20033;-71
2023/12/16 08:37:06;;;;;;;4.38;1.48;;;;;;;18.61;41.38;103852.78;5068935;28;20460;-76
2023/12/16 08:39:32;;;;;;;6.18;1.70;;;;;;;18.72;41.33;103862.94;5069445;28;20033;-74
2023/12/16 08:41:57;;;;;;;5.35;1.70;;;;;;;18.73;41.25;103872.59;5069041;28;21252;-73
2023/12/16 08:44:22;;;;;;;6.97;2.15;;;;;;;18.68;41.50;103861.34;5069112;28;20477;-73
2023/12/16 08:46:47;;;;;;;4.93;2.13;;;;;;;18.73;41.43;103861.16;5068149;28;20053;-74
2023/12/16 08:49:13;;;;;;;7.45;1.63;;;;;;;18.69;41.59;103852.47;5068986;28;21028;-74
2023/12/16 08:51:38;;;;;;;7.70;1.85;;;;;;;18.70;41.54;103853.34;5069308;28;20032;-73
2023/12/16 08:54:03;;;;;;;5.55;1.70;;;;;;;18.71;41.42;103857.69;5069135;28;20119;-75
2023/12/16 08:56:29;;;;;;;5.35;1.83;;;;;;;18.72;41.73;103862.94;5067383;28;20558;-73
2023/12/16 08:58:54;;;;;;;7.20;1.85;;;;;;;18.63;41.93;103842.16;5068283;28;20033;-73
2023/12/16 09:01:19;;;;;;;4.57;1.60;;;;;;;18.74;41.47;103860.22;5069120;28;20054;-74
2023/12/16 09:03:45;;;;;;;4.60;1.95;;;;;;;18.70;41.55;103848.06;5067648;28;20087;-74
2023/12/16 09:06:11;;;;;;;6.32;1.40;;;;;;;18.74;41.63;103849.66;5068498;28;20175;-73
2023/12/16 09:08:36;;;;;;;5.10;1.60;;;;;;;18.74;41.72;103852.31;5068361;28;20578;-76
2023/12/16 09:11:02;;;;;;;4.60;1.60;;;;;;;18.74;41.79;103866.41;5068422;28;20063;-77
2023/12/16 09:13:28;;;;;;;6.35;2.20;;;;;;;18.73;42.00;103861.16;5068737;28;20032;-75
2023/12/16 09:15:53;;;;;;;6.78;2.08;;;;;;;18.68;41.90;103859.53;5068217;28;20404;-75
2023/12/16 09:18:18;;;;;;;4.87;1.70;;;;;;;18.75;41.91;103872.53;5067976;28;20025;-75
2023/12/16 09:20:43;;;;;;;4.13;1.52;;;;;;;18.67;41.67;103860.47;5049858;28;20773;-77
2023/12/16 09:23:09;;;;;;;5.40;1.98;;;;;;;18.65;41.85;103849.09;5068122;28;20032;-75
2023/12/16 09:25:34;;;;;;;5.05;2.13;;;;;;;18.74;41.81;103863.75;5067950;28;20029;-74
2023/12/16 09:27:59;;;;;;;5.90;1.90;;;;;;;18.73;41.75;103872.59;5067293;28;20036;-76
2023/12/16 09:30:25;;;;;;;4.45;1.75;;;;;;;18.61;41.72;103851.88;5068569;28;20032;-75
2023/12/16 09:32:50;;;;;;;4.45;1.48;;;;;;;18.68;41.68;103869.25;5068170;28;20042;-77
2023/12/16 09:35:15;;;;;;;7.05;1.80;;;;;;;18.63;41.52;103866.78;5069272;28;20035;-74
2023/12/16 09:37:41;;;;;;;7.57;2.05;;;;;;;18.70;41.82;103885.06;5068910;28;20488;-73
2023/12/16 09:40:06;;;;;;;10.25;1.73;;;;;;;18.65;41.97;103874.66;5068327;28;20033;-72
2023/12/16 09:42:36;;;;;;;5.22;1.98;;;;;;;18.62;41.50;103872.97;5066004;28;20055;-72
2023/12/16 09:45:02;;;;;;;6.28;1.83;;;;;;;18.73;41.51;103895.50;5067878;28;20119;-72
2023/12/16 09:47:28;;;;;;;5.22;2.00;;;;;;;18.65;41.55;103882.56;5065519;28;20055;-72
2023/12/16 09:49:57;;;;;;;4.97;1.58;;;;;;;18.71;41.62;103886.75;5067146;28;20040;-72
2023/12/16 09:52:22;;;;;;;4.50;1.88;;;;;;;18.73;41.31;103892.88;5068247;28;20021;-70
2023/12/16 09:54:48;;;;;;;6.93;1.98;;;;;;;18.66;41.62;103882.53;5067624;28;20119;-70
2023/12/16 09:57:15;;;;;;;5.90;1.83;;;;;;;18.63;41.92;103881.78;5067767;28;20096;-73
2023/12/16 09:59:42;;;;;;;8.35;2.40;;;;;;;18.72;41.68;103899.91;5067695;28;20085;-72
2023/12/16 10:02:19;;;;;;;5.03;1.45;;;;;;;18.74;41.99;103894.56;5066492;28;20036;-72
2023/12/16 10:04:45;;;;;;;5.70;1.77;;;;;;;18.72;41.80;103905.19;5049461;28;20036;-70
2023/12/16 10:07:10;;;;;;;6.93;1.90;;;;;;;18.66;42.17;103901.00;5068103;28;20029;-73
2023/12/16 10:09:35;;;;;;;5.88;1.85;;;;;;;18.66;41.99;103885.16;5066854;28;20454;-71
2023/12/16 10:12:06;;;;;;;7.80;2.03;;;;;;;18.72;42.12;103907.00;5066846;28;20036;-74
2023/12/16 10:14:47;;;;;;;4.63;1.55;;;;;;;18.66;42.27;103886.94;5067016;28;20028;-71
2023/12/16 10:17:14;;;;;;;7.68;1.80;;;;;;;18.76;42.17;103901.53;5068059;28;20021;-71
2023/12/16 10:19:43;;;;;;;5.25;1.90;;;;;;;18.71;42.44;103890.28;5067430;28;20793;-68
2023/12/16 10:22:08;;;;;;;6.95;1.73;;;;;;;18.81;42.33;103911.94;5067119;28;20037;-69
2023/12/16 10:24:34;;;;;;;6.05;1.60;;;;;;;18.82;42.57;103909.25;5067703;28;20051;-72
2023/12/16 10:27:03;;;;;;;6.13;1.80;;;;;;;18.77;42.40;103905.91;5067432;28;20028;-71
2023/12/16 10:29:31;;;;;;;5.90;1.73;;;;;;;18.73;42.39;103893.72;5066995;28;20028;-70
2023/12/16 10:31:57;;;;;;;5.53;1.83;;;;;;;18.76;42.58;103898.03;5067287;28;20119;-70
2023/12/16 10:34:22;;;;;;;7.07;2.08;;;;;;;18.73;42.41;103888.44;5067190;28;20528;-69
2023/12/16 10:36:47;;;;;;;6.93;1.80;;;;;;;18.75;42.29;103899.81;5067134;28;20186;-69
2023/12/16 10:39:14;;;;;;;5.00;1.80;;;;;;;18.74;42.64;103894.56;5066621;28;20257;-71
2023/12/16 10:41:39;;;;;;;5.97;2.30;;;;;;;18.83;42.54;103908.34;5066970;28;20119;-70
2023/12/16 10:44:04;;;;;;;5.38;1.70;;;;;;;18.84;42.42;103902.16;5066698;28;20166;-69
2023/12/16 10:46:34;;;;;;;5.30;1.63;;;;;;;18.81;42.43;103896.94;5066168;28;20052;-70
2023/12/16 10:49:01;;;;;;;7.97;1.80;;;;;;;18.74;42.57;103884.91;5066222;28;20067;-70
2023/12/16 10:51:27;;;;;;;6.32;1.77;;;;;;;18.71;42.34;103873.56;5066355;28;20033;-70
2023/12/16 10:54:05;;;;;;;5.82;1.60;;;;;;;18.83;42.72;103894.25;5066538;28;20060;-70
2023/12/16 10:56:35;;;;;;;5.00;1.67;;;;;;;18.78;42.53;103885.63;5066208;28;20036;-67
2023/12/16 10:59:04;;;;;;;5.38;1.63;;;;;;;18.77;42.64;103876.84;5065808;28;20020;-66
2023/12/16 11:01:33;;;;;;;4.47;1.65;;;;;;;18.88;42.67;103892.31;5066253;28;20357;-69
2023/12/16 11:04:13;;;;;;;6.78;2.00;;;;;;;18.82;42.90;103874.91;5066351;28;20032;-68
2023/12/16 11:06:48;;;;;;;6.13;1.60;;;;;;;18.77;43.01;103866.28;5066516;28;20032;-70
2023/12/16 11:09:15;;;;;;;5.50;1.90;;;;;;;18.80;43.07;103867.94;5066377;28;20025;-68
2023/12/16 11:11:41;;;;;;;6.70;1.90;;;;;;;18.81;42.77;103867.03;5066232;28;20028;-68
2023/12/16 11:14:07;;;;;;;4.43;1.67;;;;;;;18.90;42.80;103884.34;5066189;28;20028;-69
2023/12/16 11:17:02;;;;;;;6.05;1.85;;;;;;;18.89;43.12;103874.72;5066476;28;20021;-69